sensor_id;sensor_type;location;lat;lon;timestamp;P1;durP1;ratioP1;P2;durP2;ratioP2
23578;SDS011;11967;50.852;4.400;2023-03-23T00:02:23;8.98;;;5.32;;
23578;SDS011;11967;50.852;4.400;2023-03-23T00:04:52;11.85;;;5.45;;
23578;SDS011;11967;50.852;4.400;2023-03-23T00:07:20;8.05;;;5.45;;
23578;SDS011;11967;50.852;4.400;2023-03-23T00:09:47;8.45;;;4.75;;
23578;SDS011;11967;50.852;4.400;2023-03-23T00:12:19;6.85;;;4.72;;
23578;SDS011;11967;50.852;4.400;2023-03-23T00:14:46;6.47;;;4.80;;
23578;SDS011;11967;50.852;4.400;2023-03-23T00:20:09;6.20;;;4.82;;
23578;SDS011;11967;50.852;4.400;2023-03-23T00:22:37;7.70;;;5.20;;
23578;SDS011;11967;50.852;4.400;2023-03-23T00:25:04;8.38;;;4.78;;
23578;SDS011;11967;50.852;4.400;2023-03-23T00:27:30;7.85;;;4.90;;
23578;SDS011;11967;50.852;4.400;2023-03-23T00:29:56;6.65;;;4.55;;
23578;SDS011;11967;50.852;4.400;2023-03-23T00:32:22;6.03;;;4.38;;
23578;SDS011;11967;50.852;4.400;2023-03-23T00:34:54;8.95;;;4.90;;
23578;SDS011;11967;50.852;4.400;2023-03-23T00:37:20;8.38;;;4.47;;
23578;SDS011;11967;50.852;4.400;2023-03-23T00:39:46;7.72;;;4.68;;
23578;SDS011;11967;50.852;4.400;2023-03-23T00:42:13;8.93;;;4.78;;
23578;SDS011;11967;50.852;4.400;2023-03-23T00:44:41;6.43;;;4.53;;
23578;SDS011;11967;50.852;4.400;2023-03-23T00:47:08;6.47;;;4.45;;
23578;SDS011;11967;50.852;4.400;2023-03-23T00:49:35;6.82;;;4.72;;
23578;SDS011;11967;50.852;4.400;2023-03-23T00:52:01;7.72;;;4.65;;
23578;SDS011;11967;50.852;4.400;2023-03-23T00:54:28;9.82;;;4.95;;
23578;SDS011;11967;50.852;4.400;2023-03-23T00:56:54;8.30;;;4.30;;
23578;SDS011;11967;50.852;4.400;2023-03-23T00:59:21;7.05;;;5.00;;
23578;SDS011;11967;50.852;4.400;2023-03-23T01:01:48;6.57;;;4.60;;
23578;SDS011;11967;50.852;4.400;2023-03-23T01:04:14;7.60;;;4.65;;
23578;SDS011;11967;50.852;4.400;2023-03-23T01:06:41;5.90;;;4.18;;
23578;SDS011;11967;50.852;4.400;2023-03-23T01:09:11;6.40;;;4.50;;
23578;SDS011;11967;50.852;4.400;2023-03-23T01:11:45;7.85;;;4.25;;
23578;SDS011;11967;50.852;4.400;2023-03-23T01:14:12;6.40;;;4.78;;
23578;SDS011;11967;50.852;4.400;2023-03-23T01:16:38;6.65;;;5.00;;
23578;SDS011;11967;50.852;4.400;2023-03-23T01:19:05;7.03;;;4.93;;
23578;SDS011;11967;50.852;4.400;2023-03-23T01:21:30;8.00;;;5.05;;
23578;SDS011;11967;50.852;4.400;2023-03-23T01:23:56;7.68;;;4.40;;
23578;SDS011;11967;50.852;4.400;2023-03-23T01:26:23;9.50;;;4.95;;
23578;SDS011;11967;50.852;4.400;2023-03-23T01:28:51;7.28;;;5.00;;
23578;SDS011;11967;50.852;4.400;2023-03-23T01:31:19;9.57;;;5.25;;
23578;SDS011;11967;50.852;4.400;2023-03-23T01:33:49;7.43;;;4.10;;
23578;SDS011;11967;50.852;4.400;2023-03-23T01:36:17;9.75;;;4.57;;
23578;SDS011;11967;50.852;4.400;2023-03-23T01:38:45;8.07;;;4.30;;
23578;SDS011;11967;50.852;4.400;2023-03-23T01:41:11;5.97;;;4.25;;
23578;SDS011;11967;50.852;4.400;2023-03-23T01:43:53;5.40;;;4.15;;
23578;SDS011;11967;50.852;4.400;2023-03-23T01:46:21;7.28;;;4.43;;
23578;SDS011;11967;50.852;4.400;2023-03-23T01:48:47;8.65;;;4.35;;
23578;SDS011;11967;50.852;4.400;2023-03-23T01:51:14;9.50;;;4.72;;
23578;SDS011;11967;50.852;4.400;2023-03-23T01:53:46;8.18;;;4.00;;
23578;SDS011;11967;50.852;4.400;2023-03-23T01:56:18;7.85;;;3.97;;
23578;SDS011;11967;50.852;4.400;2023-03-23T01:58:50;8.02;;;4.20;;
23578;SDS011;11967;50.852;4.400;2023-03-23T02:01:17;6.13;;;4.30;;
23578;SDS011;11967;50.852;4.400;2023-03-23T02:03:44;6.88;;;3.90;;
23578;SDS011;11967;50.852;4.400;2023-03-23T02:06:13;7.47;;;3.83;;
23578;SDS011;11967;50.852;4.400;2023-03-23T02:08:38;7.93;;;4.30;;
23578;SDS011;11967;50.852;4.400;2023-03-23T02:11:16;7.25;;;3.72;;
23578;SDS011;11967;50.852;4.400;2023-03-23T02:13:44;6.05;;;3.95;;
23578;SDS011;11967;50.852;4.400;2023-03-23T02:21:39;5.22;;;3.08;;
23578;SDS011;11967;50.852;4.400;2023-03-23T02:24:40;10.55;;;3.30;;
23578;SDS011;11967;50.852;4.400;2023-03-23T02:30:11;5.43;;;2.72;;
23578;SDS011;11967;50.852;4.400;2023-03-23T02:36:10;5.93;;;2.55;;
23578;SDS011;11967;50.852;4.400;2023-03-23T02:41:08;7.70;;;2.30;;
23578;SDS011;11967;50.852;4.400;2023-03-23T02:43:38;5.95;;;2.25;;
23578;SDS011;11967;50.852;4.400;2023-03-23T02:46:08;3.55;;;1.88;;
23578;SDS011;11967;50.852;4.400;2023-03-23T02:48:35;6.30;;;2.00;;
23578;SDS011;11967;50.852;4.400;2023-03-23T02:51:04;8.55;;;2.40;;
23578;SDS011;11967;50.852;4.400;2023-03-23T02:53:31;6.63;;;2.00;;
23578;SDS011;11967;50.852;4.400;2023-03-23T02:56:01;5.88;;;1.75;;
23578;SDS011;11967;50.852;4.400;2023-03-23T02:58:30;5.80;;;1.73;;
23578;SDS011;11967;50.852;4.400;2023-03-23T03:00:56;9.35;;;2.17;;
23578;SDS011;11967;50.852;4.400;2023-03-23T03:03:25;5.38;;;1.98;;
23578;SDS011;11967;50.852;4.400;2023-03-23T03:11:11;3.70;;;1.65;;
23578;SDS011;11967;50.852;4.400;2023-03-23T03:14:00;5.63;;;2.00;;
23578;SDS011;11967;50.852;4.400;2023-03-23T03:16:31;5.50;;;1.50;;
23578;SDS011;11967;50.852;4.400;2023-03-23T03:21:43;3.95;;;1.65;;
23578;SDS011;11967;50.852;4.400;2023-03-23T03:24:12;5.18;;;1.60;;
23578;SDS011;11967;50.852;4.400;2023-03-23T03:26:42;7.10;;;1.70;;
23578;SDS011;11967;50.852;4.400;2023-03-23T03:29:12;8.30;;;1.65;;
23578;SDS011;11967;50.852;4.400;2023-03-23T03:31:43;5.53;;;1.70;;
23578;SDS011;11967;50.852;4.400;2023-03-23T03:34:10;6.57;;;1.88;;
23578;SDS011;11967;50.852;4.400;2023-03-23T03:36:43;7.22;;;1.83;;
23578;SDS011;11967;50.852;4.400;2023-03-23T03:39:10;7.03;;;1.80;;
23578;SDS011;11967;50.852;4.400;2023-03-23T03:41:39;6.38;;;2.17;;
23578;SDS011;11967;50.852;4.400;2023-03-23T03:44:07;5.25;;;1.73;;
23578;SDS011;11967;50.852;4.400;2023-03-23T03:46:33;4.70;;;1.58;;
23578;SDS011;11967;50.852;4.400;2023-03-23T03:49:00;7.35;;;1.90;;
23578;SDS011;11967;50.852;4.400;2023-03-23T03:51:28;5.07;;;1.70;;
23578;SDS011;11967;50.852;4.400;2023-03-23T03:53:58;5.45;;;1.90;;
23578;SDS011;11967;50.852;4.400;2023-03-23T03:56:24;5.40;;;1.92;;
23578;SDS011;11967;50.852;4.400;2023-03-23T03:58:51;6.63;;;2.03;;
23578;SDS011;11967;50.852;4.400;2023-03-23T04:01:17;14.50;;;2.92;;
23578;SDS011;11967;50.852;4.400;2023-03-23T04:03:47;5.90;;;1.80;;
23578;SDS011;11967;50.852;4.400;2023-03-23T04:06:13;7.43;;;2.17;;
23578;SDS011;11967;50.852;4.400;2023-03-23T04:08:40;9.75;;;2.30;;
23578;SDS011;11967;50.852;4.400;2023-03-23T04:11:07;8.48;;;2.47;;
23578;SDS011;11967;50.852;4.400;2023-03-23T04:13:33;8.10;;;1.95;;
23578;SDS011;11967;50.852;4.400;2023-03-23T04:15:59;12.00;;;2.78;;
23578;SDS011;11967;50.852;4.400;2023-03-23T04:18:25;7.70;;;2.10;;
23578;SDS011;11967;50.852;4.400;2023-03-23T04:20:51;10.85;;;2.33;;
23578;SDS011;11967;50.852;4.400;2023-03-23T04:23:17;7.50;;;2.13;;
23578;SDS011;11967;50.852;4.400;2023-03-23T04:25:51;10.57;;;2.45;;
23578;SDS011;11967;50.852;4.400;2023-03-23T04:28:18;9.75;;;2.38;;
23578;SDS011;11967;50.852;4.400;2023-03-23T04:30:48;11.55;;;2.05;;
23578;SDS011;11967;50.852;4.400;2023-03-23T04:33:17;9.30;;;1.90;;
23578;SDS011;11967;50.852;4.400;2023-03-23T04:35:44;8.80;;;1.88;;
23578;SDS011;11967;50.852;4.400;2023-03-23T04:38:10;9.75;;;2.03;;
23578;SDS011;11967;50.852;4.400;2023-03-23T04:40:39;7.57;;;1.90;;
23578;SDS011;11967;50.852;4.400;2023-03-23T04:43:11;10.20;;;2.00;;
23578;SDS011;11967;50.852;4.400;2023-03-23T04:45:39;10.15;;;2.10;;
23578;SDS011;11967;50.852;4.400;2023-03-23T04:48:10;9.10;;;1.92;;
23578;SDS011;11967;50.852;4.400;2023-03-23T04:50:37;6.00;;;1.30;;
23578;SDS011;11967;50.852;4.400;2023-03-23T04:53:03;9.95;;;1.83;;
23578;SDS011;11967;50.852;4.400;2023-03-23T04:55:33;9.80;;;2.20;;
23578;SDS011;11967;50.852;4.400;2023-03-23T04:58:07;8.90;;;2.00;;
23578;SDS011;11967;50.852;4.400;2023-03-23T05:00:34;7.40;;;1.73;;
23578;SDS011;11967;50.852;4.400;2023-03-23T05:03:00;9.13;;;1.70;;
23578;SDS011;11967;50.852;4.400;2023-03-23T05:05:27;8.10;;;1.90;;
23578;SDS011;11967;50.852;4.400;2023-03-23T05:07:55;8.88;;;2.00;;
23578;SDS011;11967;50.852;4.400;2023-03-23T05:10:21;6.00;;;1.85;;
23578;SDS011;11967;50.852;4.400;2023-03-23T05:12:47;7.93;;;1.80;;
23578;SDS011;11967;50.852;4.400;2023-03-23T05:15:14;5.53;;;1.70;;
23578;SDS011;11967;50.852;4.400;2023-03-23T05:17:41;6.70;;;1.90;;
23578;SDS011;11967;50.852;4.400;2023-03-23T05:20:13;7.72;;;1.60;;
23578;SDS011;11967;50.852;4.400;2023-03-23T05:22:40;9.65;;;2.42;;
23578;SDS011;11967;50.852;4.400;2023-03-23T05:25:07;9.10;;;2.53;;
23578;SDS011;11967;50.852;4.400;2023-03-23T05:27:37;9.43;;;2.40;;
23578;SDS011;11967;50.852;4.400;2023-03-23T05:30:06;9.82;;;2.50;;
23578;SDS011;11967;50.852;4.400;2023-03-23T05:32:33;6.15;;;2.03;;
23578;SDS011;11967;50.852;4.400;2023-03-23T05:34:58;7.32;;;1.98;;
23578;SDS011;11967;50.852;4.400;2023-03-23T05:37:25;8.82;;;2.35;;
23578;SDS011;11967;50.852;4.400;2023-03-23T05:39:53;11.73;;;2.53;;
23578;SDS011;11967;50.852;4.400;2023-03-23T05:42:20;8.75;;;2.03;;
23578;SDS011;11967;50.852;4.400;2023-03-23T05:44:47;11.55;;;2.20;;
23578;SDS011;11967;50.852;4.400;2023-03-23T05:47:13;9.23;;;2.08;;
23578;SDS011;11967;50.852;4.400;2023-03-23T05:49:39;7.15;;;2.40;;
23578;SDS011;11967;50.852;4.400;2023-03-23T05:52:05;4.90;;;1.60;;
23578;SDS011;11967;50.852;4.400;2023-03-23T05:54:31;7.03;;;2.00;;
23578;SDS011;11967;50.852;4.400;2023-03-23T05:56:59;8.63;;;2.10;;
23578;SDS011;11967;50.852;4.400;2023-03-23T06:05:28;8.88;;;2.03;;
23578;SDS011;11967;50.852;4.400;2023-03-23T06:07:54;8.75;;;2.15;;
23578;SDS011;11967;50.852;4.400;2023-03-23T06:10:20;9.55;;;2.13;;
23578;SDS011;11967;50.852;4.400;2023-03-23T06:12:46;12.88;;;2.38;;
23578;SDS011;11967;50.852;4.400;2023-03-23T06:15:12;8.02;;;2.17;;
23578;SDS011;11967;50.852;4.400;2023-03-23T06:17:38;11.23;;;2.13;;
23578;SDS011;11967;50.852;4.400;2023-03-23T06:20:06;8.68;;;2.38;;
23578;SDS011;11967;50.852;4.400;2023-03-23T06:22:36;8.30;;;2.30;;
23578;SDS011;11967;50.852;4.400;2023-03-23T06:25:03;10.18;;;2.65;;
23578;SDS011;11967;50.852;4.400;2023-03-23T06:27:30;13.52;;;2.67;;
23578;SDS011;11967;50.852;4.400;2023-03-23T06:29:56;9.27;;;2.60;;
23578;SDS011;11967;50.852;4.400;2023-03-23T06:32:24;9.77;;;2.60;;
23578;SDS011;11967;50.852;4.400;2023-03-23T06:34:52;9.30;;;2.42;;
23578;SDS011;11967;50.852;4.400;2023-03-23T06:37:18;8.88;;;2.47;;
23578;SDS011;11967;50.852;4.400;2023-03-23T06:39:43;10.52;;;2.65;;
23578;SDS011;11967;50.852;4.400;2023-03-23T06:42:09;9.70;;;2.67;;
23578;SDS011;11967;50.852;4.400;2023-03-23T06:44:38;15.18;;;3.17;;
23578;SDS011;11967;50.852;4.400;2023-03-23T06:47:04;7.90;;;2.22;;
23578;SDS011;11967;50.852;4.400;2023-03-23T06:49:30;13.13;;;2.63;;
23578;SDS011;11967;50.852;4.400;2023-03-23T06:51:58;13.20;;;2.72;;
23578;SDS011;11967;50.852;4.400;2023-03-23T06:54:26;11.45;;;2.40;;
23578;SDS011;11967;50.852;4.400;2023-03-23T06:56:52;8.68;;;2.28;;
23578;SDS011;11967;50.852;4.400;2023-03-23T06:59:18;7.45;;;2.50;;
23578;SDS011;11967;50.852;4.400;2023-03-23T07:01:44;6.60;;;2.58;;
23578;SDS011;11967;50.852;4.400;2023-03-23T07:04:11;9.77;;;2.40;;
23578;SDS011;11967;50.852;4.400;2023-03-23T07:06:37;10.68;;;2.88;;
23578;SDS011;11967;50.852;4.400;2023-03-23T07:09:03;8.77;;;2.53;;
23578;SDS011;11967;50.852;4.400;2023-03-23T07:11:31;8.13;;;2.72;;
23578;SDS011;11967;50.852;4.400;2023-03-23T07:13:57;4.90;;;1.50;;
23578;SDS011;11967;50.852;4.400;2023-03-23T07:16:24;3.72;;;1.23;;
23578;SDS011;11967;50.852;4.400;2023-03-23T07:18:51;4.43;;;1.38;;
23578;SDS011;11967;50.852;4.400;2023-03-23T07:21:17;7.50;;;3.30;;
23578;SDS011;11967;50.852;4.400;2023-03-23T07:23:43;9.10;;;4.38;;
23578;SDS011;11967;50.852;4.400;2023-03-23T07:26:11;5.05;;;1.65;;
23578;SDS011;11967;50.852;4.400;2023-03-23T07:28:37;4.25;;;1.80;;
23578;SDS011;11967;50.852;4.400;2023-03-23T07:31:04;5.38;;;1.30;;
23578;SDS011;11967;50.852;4.400;2023-03-23T07:33:30;7.72;;;1.63;;
23578;SDS011;11967;50.852;4.400;2023-03-23T07:35:58;13.77;;;6.95;;
23578;SDS011;11967;50.852;4.400;2023-03-23T07:38:24;5.22;;;1.83;;
23578;SDS011;11967;50.852;4.400;2023-03-23T07:40:52;5.10;;;1.48;;
23578;SDS011;11967;50.852;4.400;2023-03-23T07:43:18;7.38;;;1.50;;
23578;SDS011;11967;50.852;4.400;2023-03-23T07:45:45;8.02;;;1.85;;
23578;SDS011;11967;50.852;4.400;2023-03-23T07:48:11;6.10;;;1.88;;
23578;SDS011;11967;50.852;4.400;2023-03-23T07:50:37;8.77;;;1.70;;
23578;SDS011;11967;50.852;4.400;2023-03-23T07:53:03;7.75;;;2.05;;
23578;SDS011;11967;50.852;4.400;2023-03-23T07:55:29;8.48;;;2.10;;
23578;SDS011;11967;50.852;4.400;2023-03-23T07:57:54;6.78;;;1.98;;
23578;SDS011;11967;50.852;4.400;2023-03-23T08:00:21;4.57;;;1.98;;
23578;SDS011;11967;50.852;4.400;2023-03-23T08:02:49;7.75;;;1.60;;
23578;SDS011;11967;50.852;4.400;2023-03-23T08:05:17;5.78;;;1.90;;
23578;SDS011;11967;50.852;4.400;2023-03-23T08:07:44;7.70;;;4.15;;
23578;SDS011;11967;50.852;4.400;2023-03-23T08:10:10;6.50;;;2.22;;
23578;SDS011;11967;50.852;4.400;2023-03-23T08:12:37;6.47;;;1.58;;
23578;SDS011;11967;50.852;4.400;2023-03-23T08:15:07;5.13;;;1.70;;
23578;SDS011;11967;50.852;4.400;2023-03-23T08:17:34;5.85;;;1.40;;
23578;SDS011;11967;50.852;4.400;2023-03-23T08:20:01;6.70;;;1.50;;
23578;SDS011;11967;50.852;4.400;2023-03-23T08:22:33;7.82;;;1.38;;
23578;SDS011;11967;50.852;4.400;2023-03-23T08:25:01;7.65;;;1.30;;
23578;SDS011;11967;50.852;4.400;2023-03-23T08:27:28;4.50;;;1.50;;
23578;SDS011;11967;50.852;4.400;2023-03-23T08:29:54;5.60;;;1.25;;
23578;SDS011;11967;50.852;4.400;2023-03-23T08:32:20;5.25;;;1.40;;
23578;SDS011;11967;50.852;4.400;2023-03-23T08:34:45;5.78;;;1.70;;
23578;SDS011;11967;50.852;4.400;2023-03-23T08:37:11;4.75;;;1.20;;
23578;SDS011;11967;50.852;4.400;2023-03-23T08:39:37;5.22;;;1.38;;
23578;SDS011;11967;50.852;4.400;2023-03-23T08:42:03;4.63;;;1.50;;
23578;SDS011;11967;50.852;4.400;2023-03-23T08:44:29;4.68;;;1.70;;
23578;SDS011;11967;50.852;4.400;2023-03-23T08:46:54;3.78;;;1.25;;
23578;SDS011;11967;50.852;4.400;2023-03-23T08:49:22;5.20;;;1.75;;
23578;SDS011;11967;50.852;4.400;2023-03-23T08:51:48;5.75;;;1.80;;
23578;SDS011;11967;50.852;4.400;2023-03-23T08:54:14;5.97;;;1.50;;
23578;SDS011;11967;50.852;4.400;2023-03-23T08:56:39;4.35;;;1.40;;
23578;SDS011;11967;50.852;4.400;2023-03-23T08:59:06;6.00;;;1.75;;
23578;SDS011;11967;50.852;4.400;2023-03-23T09:01:32;7.95;;;1.60;;
23578;SDS011;11967;50.852;4.400;2023-03-23T09:03:58;5.65;;;2.05;;
23578;SDS011;11967;50.852;4.400;2023-03-23T09:06:24;4.78;;;1.67;;
23578;SDS011;11967;50.852;4.400;2023-03-23T09:08:50;3.78;;;1.40;;
23578;SDS011;11967;50.852;4.400;2023-03-23T09:11:16;5.85;;;1.60;;
23578;SDS011;11967;50.852;4.400;2023-03-23T09:13:41;8.15;;;1.90;;
23578;SDS011;11967;50.852;4.400;2023-03-23T09:16:07;5.20;;;1.60;;
23578;SDS011;11967;50.852;4.400;2023-03-23T09:18:34;4.72;;;1.50;;
23578;SDS011;11967;50.852;4.400;2023-03-23T09:21:01;6.78;;;1.65;;
23578;SDS011;11967;50.852;4.400;2023-03-23T09:23:28;4.90;;;1.52;;
23578;SDS011;11967;50.852;4.400;2023-03-23T09:25:54;8.13;;;1.70;;
23578;SDS011;11967;50.852;4.400;2023-03-23T09:28:21;3.95;;;1.90;;
23578;SDS011;11967;50.852;4.400;2023-03-23T09:30:47;5.13;;;1.80;;
23578;SDS011;11967;50.852;4.400;2023-03-23T09:33:13;4.85;;;1.50;;
23578;SDS011;11967;50.852;4.400;2023-03-23T09:35:39;6.28;;;1.50;;
23578;SDS011;11967;50.852;4.400;2023-03-23T09:38:07;3.88;;;1.80;;
23578;SDS011;11967;50.852;4.400;2023-03-23T09:43:31;7.38;;;1.90;;
23578;SDS011;11967;50.852;4.400;2023-03-23T09:46:16;3.05;;;1.58;;
23578;SDS011;11967;50.852;4.400;2023-03-23T09:49:01;4.97;;;1.83;;
23578;SDS011;11967;50.852;4.400;2023-03-23T09:54:16;7.80;;;2.15;;
23578;SDS011;11967;50.852;4.400;2023-03-23T09:56:55;6.47;;;2.20;;
23578;SDS011;11967;50.852;4.400;2023-03-23T09:59:41;5.95;;;1.85;;
23578;SDS011;11967;50.852;4.400;2023-03-23T10:02:32;7.53;;;1.83;;
23578;SDS011;11967;50.852;4.400;2023-03-23T10:05:51;5.05;;;2.35;;
23578;SDS011;11967;50.852;4.400;2023-03-23T10:08:14;6.90;;;2.10;;
23578;SDS011;11967;50.852;4.400;2023-03-23T10:13:43;8.30;;;2.45;;
23578;SDS011;11967;50.852;4.400;2023-03-23T10:16:15;5.95;;;2.53;;
23578;SDS011;11967;50.852;4.400;2023-03-23T10:21:42;6.65;;;2.55;;
23578;SDS011;11967;50.852;4.400;2023-03-23T10:24:14;12.95;;;3.17;;
23578;SDS011;11967;50.852;4.400;2023-03-23T10:29:24;8.02;;;2.80;;
23578;SDS011;11967;50.852;4.400;2023-03-23T10:31:58;6.10;;;2.42;;
23578;SDS011;11967;50.852;4.400;2023-03-23T10:34:48;7.13;;;2.58;;
23578;SDS011;11967;50.852;4.400;2023-03-23T10:37:22;6.80;;;2.20;;
23578;SDS011;11967;50.852;4.400;2023-03-23T10:39:56;10.45;;;3.28;;
23578;SDS011;11967;50.852;4.400;2023-03-23T10:42:29;6.50;;;2.38;;
23578;SDS011;11967;50.852;4.400;2023-03-23T10:44:58;7.63;;;2.30;;
23578;SDS011;11967;50.852;4.400;2023-03-23T10:47:25;8.93;;;2.65;;
23578;SDS011;11967;50.852;4.400;2023-03-23T10:49:59;17.23;;;5.78;;
23578;SDS011;11967;50.852;4.400;2023-03-23T10:52:34;7.10;;;2.70;;
23578;SDS011;11967;50.852;4.400;2023-03-23T10:57:58;7.60;;;2.80;;
23578;SDS011;11967;50.852;4.400;2023-03-23T11:00:26;9.50;;;2.70;;
23578;SDS011;11967;50.852;4.400;2023-03-23T11:03:53;8.75;;;2.72;;
23578;SDS011;11967;50.852;4.400;2023-03-23T11:05:56;8.85;;;3.05;;
23578;SDS011;11967;50.852;4.400;2023-03-23T11:08:24;9.05;;;2.15;;
23578;SDS011;11967;50.852;4.400;2023-03-23T11:13:31;33.20;;;12.88;;
23578;SDS011;11967;50.852;4.400;2023-03-23T11:15:57;14.52;;;3.90;;
23578;SDS011;11967;50.852;4.400;2023-03-23T11:18:42;8.82;;;3.45;;
23578;SDS011;11967;50.852;4.400;2023-03-23T11:21:08;13.30;;;3.25;;
23578;SDS011;11967;50.852;4.400;2023-03-23T11:23:38;12.13;;;3.35;;
23578;SDS011;11967;50.852;4.400;2023-03-23T11:29:31;10.30;;;2.80;;
23578;SDS011;11967;50.852;4.400;2023-03-23T11:31:44;15.43;;;3.30;;
23578;SDS011;11967;50.852;4.400;2023-03-23T11:34:18;12.88;;;3.22;;
23578;SDS011;11967;50.852;4.400;2023-03-23T11:37:17;9.18;;;3.10;;
23578;SDS011;11967;50.852;4.400;2023-03-23T11:42:43;10.85;;;2.38;;
23578;SDS011;11967;50.852;4.400;2023-03-23T11:47:41;10.75;;;2.53;;
23578;SDS011;11967;50.852;4.400;2023-03-23T11:52:49;14.27;;;2.75;;
23578;SDS011;11967;50.852;4.400;2023-03-23T11:55:32;10.23;;;2.75;;
23578;SDS011;11967;50.852;4.400;2023-03-23T11:58:06;8.00;;;2.60;;
23578;SDS011;11967;50.852;4.400;2023-03-23T12:00:37;11.02;;;2.53;;
23578;SDS011;11967;50.852;4.400;2023-03-23T12:03:15;10.75;;;2.47;;
23578;SDS011;11967;50.852;4.400;2023-03-23T12:06:13;8.50;;;2.22;;
23578;SDS011;11967;50.852;4.400;2023-03-23T12:14:47;9.07;;;2.05;;
23578;SDS011;11967;50.852;4.400;2023-03-23T12:25:36;9.82;;;2.33;;
23578;SDS011;11967;50.852;4.400;2023-03-23T12:33:45;10.45;;;2.53;;
23578;SDS011;11967;50.852;4.400;2023-03-23T12:44:58;12.65;;;2.58;;
23578;SDS011;11967;50.852;4.400;2023-03-23T12:47:37;11.07;;;2.30;;
23578;SDS011;11967;50.852;4.400;2023-03-23T12:50:18;14.77;;;2.45;;
23578;SDS011;11967;50.852;4.400;2023-03-23T12:53:04;12.35;;;2.78;;
23578;SDS011;11967;50.852;4.400;2023-03-23T12:55:47;13.45;;;2.88;;
23578;SDS011;11967;50.852;4.400;2023-03-23T12:58:18;12.02;;;2.75;;
23578;SDS011;11967;50.852;4.400;2023-03-23T13:00:59;12.98;;;2.80;;
23578;SDS011;11967;50.852;4.400;2023-03-23T13:06:27;11.80;;;2.92;;
23578;SDS011;11967;50.852;4.400;2023-03-23T13:11:55;9.68;;;2.60;;
23578;SDS011;11967;50.852;4.400;2023-03-23T13:28:24;15.90;;;2.88;;
23578;SDS011;11967;50.852;4.400;2023-03-23T13:33:36;13.93;;;3.00;;
23578;SDS011;11967;50.852;4.400;2023-03-23T13:36:10;12.35;;;3.05;;
23578;SDS011;11967;50.852;4.400;2023-03-23T13:38:44;11.75;;;2.60;;
23578;SDS011;11967;50.852;4.400;2023-03-23T13:41:13;14.38;;;3.25;;
23578;SDS011;11967;50.852;4.400;2023-03-23T13:43:41;10.68;;;2.50;;
23578;SDS011;11967;50.852;4.400;2023-03-23T13:48:47;13.73;;;3.03;;
23578;SDS011;11967;50.852;4.400;2023-03-23T13:57:02;14.32;;;2.53;;
23578;SDS011;11967;50.852;4.400;2023-03-23T13:59:48;13.23;;;2.80;;
23578;SDS011;11967;50.852;4.400;2023-03-23T14:02:35;11.93;;;2.55;;
23578;SDS011;11967;50.852;4.400;2023-03-23T14:10:25;11.77;;;2.55;;
23578;SDS011;11967;50.852;4.400;2023-03-23T14:12:59;11.25;;;3.08;;
23578;SDS011;11967;50.852;4.400;2023-03-23T14:15:30;12.98;;;2.85;;
23578;SDS011;11967;50.852;4.400;2023-03-23T14:18:03;16.25;;;3.35;;
23578;SDS011;11967;50.852;4.400;2023-03-23T14:20:31;13.40;;;3.28;;
23578;SDS011;11967;50.852;4.400;2023-03-23T14:22:59;10.55;;;3.38;;
23578;SDS011;11967;50.852;4.400;2023-03-23T14:25:31;14.85;;;3.55;;
23578;SDS011;11967;50.852;4.400;2023-03-23T14:27:57;12.15;;;3.47;;
23578;SDS011;11967;50.852;4.400;2023-03-23T14:30:24;12.80;;;3.28;;
23578;SDS011;11967;50.852;4.400;2023-03-23T14:32:53;12.13;;;3.08;;
23578;SDS011;11967;50.852;4.400;2023-03-23T14:35:28;15.23;;;3.00;;
23578;SDS011;11967;50.852;4.400;2023-03-23T14:37:56;14.45;;;3.22;;
23578;SDS011;11967;50.852;4.400;2023-03-23T14:40:23;12.60;;;3.22;;
23578;SDS011;11967;50.852;4.400;2023-03-23T14:42:52;11.35;;;3.17;;
23578;SDS011;11967;50.852;4.400;2023-03-23T14:45:19;10.57;;;2.38;;
23578;SDS011;11967;50.852;4.400;2023-03-23T14:48:08;8.30;;;2.03;;
23578;SDS011;11967;50.852;4.400;2023-03-23T14:53:24;12.88;;;2.88;;
23578;SDS011;11967;50.852;4.400;2023-03-23T14:56:03;12.68;;;2.50;;
23578;SDS011;11967;50.852;4.400;2023-03-23T14:58:37;12.95;;;2.28;;
23578;SDS011;11967;50.852;4.400;2023-03-23T15:03:43;11.15;;;2.83;;
23578;SDS011;11967;50.852;4.400;2023-03-23T15:06:15;15.02;;;3.20;;
23578;SDS011;11967;50.852;4.400;2023-03-23T15:08:43;10.35;;;3.20;;
23578;SDS011;11967;50.852;4.400;2023-03-23T15:13:52;12.85;;;3.95;;
23578;SDS011;11967;50.852;4.400;2023-03-23T15:16:23;17.33;;;5.55;;
23578;SDS011;11967;50.852;4.400;2023-03-23T15:18:53;17.27;;;4.82;;
23578;SDS011;11967;50.852;4.400;2023-03-23T15:23:55;16.63;;;5.13;;
23578;SDS011;11967;50.852;4.400;2023-03-23T15:29:45;16.27;;;4.78;;
23578;SDS011;11967;50.852;4.400;2023-03-23T15:31:47;14.52;;;3.60;;
23578;SDS011;11967;50.852;4.400;2023-03-23T15:34:17;12.45;;;3.08;;
23578;SDS011;11967;50.852;4.400;2023-03-23T15:37:06;13.55;;;3.47;;
23578;SDS011;11967;50.852;4.400;2023-03-23T15:39:44;11.27;;;3.05;;
23578;SDS011;11967;50.852;4.400;2023-03-23T15:47:47;18.33;;;3.40;;
23578;SDS011;11967;50.852;4.400;2023-03-23T15:50:15;12.60;;;2.80;;
23578;SDS011;11967;50.852;4.400;2023-03-23T15:52:41;11.30;;;3.30;;
23578;SDS011;11967;50.852;4.400;2023-03-23T15:55:41;15.20;;;3.20;;
23578;SDS011;11967;50.852;4.400;2023-03-23T15:58:07;12.65;;;3.17;;
23578;SDS011;11967;50.852;4.400;2023-03-23T16:00:35;14.23;;;3.35;;
23578;SDS011;11967;50.852;4.400;2023-03-23T16:03:04;11.10;;;3.20;;
23578;SDS011;11967;50.852;4.400;2023-03-23T16:05:31;15.63;;;3.28;;
23578;SDS011;11967;50.852;4.400;2023-03-23T16:07:57;14.70;;;3.25;;
23578;SDS011;11967;50.852;4.400;2023-03-23T16:10:24;11.15;;;3.00;;
23578;SDS011;11967;50.852;4.400;2023-03-23T16:12:50;13.50;;;3.17;;
23578;SDS011;11967;50.852;4.400;2023-03-23T16:15:16;11.18;;;2.28;;
23578;SDS011;11967;50.852;4.400;2023-03-23T16:17:42;12.07;;;2.88;;
23578;SDS011;11967;50.852;4.400;2023-03-23T16:20:16;20.10;;;2.80;;
23578;SDS011;11967;50.852;4.400;2023-03-23T16:22:50;9.85;;;2.70;;
23578;SDS011;11967;50.852;4.400;2023-03-23T16:25:16;10.50;;;2.75;;
23578;SDS011;11967;50.852;4.400;2023-03-23T16:27:43;10.80;;;2.95;;
23578;SDS011;11967;50.852;4.400;2023-03-23T16:32:39;12.80;;;3.83;;
23578;SDS011;11967;50.852;4.400;2023-03-23T16:35:06;13.45;;;3.85;;
23578;SDS011;11967;50.852;4.400;2023-03-23T16:37:32;14.38;;;3.65;;
23578;SDS011;11967;50.852;4.400;2023-03-23T16:39:58;12.38;;;3.85;;
23578;SDS011;11967;50.852;4.400;2023-03-23T16:42:25;11.90;;;3.50;;
23578;SDS011;11967;50.852;4.400;2023-03-23T16:44:50;12.45;;;3.63;;
23578;SDS011;11967;50.852;4.400;2023-03-23T16:47:19;13.50;;;3.20;;
23578;SDS011;11967;50.852;4.400;2023-03-23T16:49:52;13.82;;;3.10;;
23578;SDS011;11967;50.852;4.400;2023-03-23T16:52:18;12.73;;;3.00;;
23578;SDS011;11967;50.852;4.400;2023-03-23T16:54:44;11.23;;;3.47;;
23578;SDS011;11967;50.852;4.400;2023-03-23T16:57:10;14.80;;;3.50;;
23578;SDS011;11967;50.852;4.400;2023-03-23T16:59:36;15.57;;;3.42;;
23578;SDS011;11967;50.852;4.400;2023-03-23T17:02:01;13.50;;;3.05;;
23578;SDS011;11967;50.852;4.400;2023-03-23T17:04:28;12.32;;;3.58;;
23578;SDS011;11967;50.852;4.400;2023-03-23T17:06:55;12.80;;;3.28;;
23578;SDS011;11967;50.852;4.400;2023-03-23T17:09:23;9.23;;;2.83;;
23578;SDS011;11967;50.852;4.400;2023-03-23T17:11:49;15.30;;;3.60;;
23578;SDS011;11967;50.852;4.400;2023-03-23T17:14:15;10.57;;;3.10;;
23578;SDS011;11967;50.852;4.400;2023-03-23T17:16:41;11.85;;;3.20;;
23578;SDS011;11967;50.852;4.400;2023-03-23T17:19:06;15.82;;;3.83;;
23578;SDS011;11967;50.852;4.400;2023-03-23T17:21:32;15.18;;;3.42;;
23578;SDS011;11967;50.852;4.400;2023-03-23T17:23:58;13.93;;;3.83;;
23578;SDS011;11967;50.852;4.400;2023-03-23T17:26:23;15.95;;;3.85;;